EDW12R LSZH-LOWW
Flight info
| Callsign | EDW12R |
|---|---|
| Flight time | 0h 56m |
| Altitude | 31000 |
| Route | DEGES1T DEGES Z2 XEBIX N871 BADVI L725 INPUL DCT NEMAL NEMAL2W |
| Aircraft | A320/M-VGDW/C |
Departure
| Time | 2026-04-26 16:43 |
|---|---|
| Airport | Zürich Airport (LSZH) |
Arrival
| Time | 2026-04-26 17:39 |
|---|---|
| Airport | Vienna International Airport (LOWW) |
| Time | Latitude | Longitude | Altitude | Speed | Heading |
|---|---|---|---|---|---|
| 2026-04-26 16:30 | 47.45404 | 8.56117 | 1397 ft | 0 kts | 186° |
| 2026-04-26 16:33 | 47.45415 | 8.56119 | 1397 ft | 2 kts | 186° |
| 2026-04-26 16:33 | 47.45436 | 8.56123 | 1400 ft | 2 kts | 191° |
| 2026-04-26 16:33 | 47.45447 | 8.56127 | 1405 ft | 2 kts | 194° |
| 2026-04-26 16:33 | 47.45463 | 8.56134 | 1405 ft | 2 kts | 207° |
| 2026-04-26 16:34 | 47.45476 | 8.56149 | 1404 ft | 2 kts | 249° |
| 2026-04-26 16:34 | 47.45478 | 8.56168 | 1406 ft | 1 kts | 274° |
| 2026-04-26 16:34 | 47.45478 | 8.56171 | 1405 ft | 0 kts | 274° |
| 2026-04-26 16:35 | 47.45478 | 8.56168 | 1406 ft | 1 kts | 274° |
| 2026-04-26 16:35 | 47.45481 | 8.56122 | 1404 ft | 10 kts | 274° |
| 2026-04-26 16:36 | 47.45491 | 8.55976 | 1406 ft | 17 kts | 277° |
| 2026-04-26 16:36 | 47.45504 | 8.55787 | 1406 ft | 19 kts | 275° |
| 2026-04-26 16:36 | 47.45517 | 8.55620 | 1402 ft | 14 kts | 277° |
| 2026-04-26 16:36 | 47.45526 | 8.55491 | 1397 ft | 12 kts | 276° |
| 2026-04-26 16:37 | 47.45535 | 8.55359 | 1402 ft | 13 kts | 276° |
| 2026-04-26 16:37 | 47.45574 | 8.55250 | 1399 ft | 13 kts | 325° |
| 2026-04-26 16:37 | 47.45658 | 8.55190 | 1401 ft | 13 kts | 335° |
| 2026-04-26 16:37 | 47.45740 | 8.55135 | 1405 ft | 12 kts | 334° |
| 2026-04-26 16:38 | 47.45816 | 8.55081 | 1405 ft | 12 kts | 336° |
| 2026-04-26 16:38 | 47.45889 | 8.55035 | 1402 ft | 11 kts | 337° |
| 2026-04-26 16:38 | 47.45951 | 8.54993 | 1404 ft | 9 kts | 325° |
| 2026-04-26 16:38 | 47.45994 | 8.54954 | 1406 ft | 7 kts | 331° |
| 2026-04-26 16:39 | 47.46054 | 8.54914 | 1399 ft | 17 kts | 335° |
| 2026-04-26 16:39 | 47.46216 | 8.54806 | 1400 ft | 33 kts | 335° |
| 2026-04-26 16:39 | 47.46454 | 8.54642 | 1401 ft | 41 kts | 334° |
| 2026-04-26 16:39 | 47.46716 | 8.54461 | 1401 ft | 39 kts | 334° |
| 2026-04-26 16:40 | 47.46939 | 8.54315 | 1398 ft | 32 kts | 336° |
| 2026-04-26 16:40 | 47.47123 | 8.54194 | 1399 ft | 26 kts | 337° |
| 2026-04-26 16:40 | 47.47269 | 8.54095 | 1405 ft | 21 kts | 335° |
| 2026-04-26 16:40 | 47.47391 | 8.54011 | 1404 ft | 20 kts | 334° |
| 2026-04-26 16:41 | 47.47533 | 8.53913 | 1402 ft | 24 kts | 334° |
| 2026-04-26 16:41 | 47.47599 | 8.53741 | 1397 ft | 19 kts | 250° |
| 2026-04-26 16:41 | 47.47520 | 8.53647 | 1403 ft | 12 kts | 182° |
| 2026-04-26 16:41 | 47.47453 | 8.53677 | 1402 ft | 8 kts | 155° |
| 2026-04-26 16:42 | 47.47358 | 8.53744 | 1396 ft | 38 kts | 154° |
| 2026-04-26 16:42 | 47.46931 | 8.54035 | 1406 ft | 96 kts | 155° |
| 2026-04-26 16:42 | 47.46174 | 8.54564 | 1427 ft | 145 kts | 153° |
| 2026-04-26 16:42 | 47.45208 | 8.55170 | 1961 ft | 150 kts | 151° |
| 2026-04-26 16:43 | 47.44254 | 8.55907 | 2495 ft | 163 kts | 150° |
| 2026-04-26 16:43 | 47.43228 | 8.56796 | 2951 ft | 181 kts | 149° |
| 2026-04-26 16:43 | 47.42102 | 8.57792 | 3432 ft | 195 kts | 149° |
| 2026-04-26 16:43 | 47.40909 | 8.58852 | 4034 ft | 203 kts | 149° |
| 2026-04-26 16:44 | 47.39707 | 8.60075 | 4645 ft | 220 kts | 132° |
| 2026-04-26 16:44 | 47.39063 | 8.62136 | 5381 ft | 229 kts | 94° |
| 2026-04-26 16:44 | 47.39116 | 8.64523 | 6213 ft | 237 kts | 85° |
| 2026-04-26 16:44 | 47.39244 | 8.66996 | 6967 ft | 249 kts | 85° |
| 2026-04-26 16:45 | 47.39360 | 8.69623 | 7487 ft | 272 kts | 86° |
| 2026-04-26 16:45 | 47.39474 | 8.72520 | 8002 ft | 294 kts | 86° |
| 2026-04-26 16:45 | 47.39598 | 8.75652 | 8520 ft | 317 kts | 86° |
| 2026-04-26 16:45 | 47.39736 | 8.79007 | 9056 ft | 331 kts | 86° |
| 2026-04-26 16:46 | 47.39878 | 8.82409 | 9579 ft | 333 kts | 86° |
| 2026-04-26 16:46 | 47.40020 | 8.85841 | 10103 ft | 338 kts | 86° |
| 2026-04-26 16:46 | 47.40164 | 8.89336 | 10586 ft | 345 kts | 86° |
| 2026-04-26 16:46 | 47.40306 | 8.92862 | 11066 ft | 352 kts | 86° |
| 2026-04-26 16:47 | 47.40454 | 8.96508 | 11572 ft | 359 kts | 86° |
| 2026-04-26 16:47 | 47.40606 | 9.00220 | 12078 ft | 365 kts | 86° |
| 2026-04-26 16:47 | 47.40759 | 9.03984 | 12591 ft | 370 kts | 86° |
| 2026-04-26 16:47 | 47.40912 | 9.07801 | 13113 ft | 375 kts | 86° |
| 2026-04-26 16:48 | 47.41069 | 9.11665 | 13645 ft | 379 kts | 85° |
| 2026-04-26 16:48 | 47.41228 | 9.15565 | 14159 ft | 382 kts | 85° |
| 2026-04-26 16:48 | 47.41388 | 9.19503 | 14643 ft | 385 kts | 85° |
| 2026-04-26 16:48 | 47.41548 | 9.23464 | 15140 ft | 388 kts | 85° |
| 2026-04-26 16:49 | 47.41709 | 9.27448 | 15622 ft | 390 kts | 85° |
| 2026-04-26 16:49 | 47.41869 | 9.31399 | 16125 ft | 391 kts | 85° |
| 2026-04-26 16:49 | 47.42032 | 9.35412 | 16638 ft | 392 kts | 85° |
| 2026-04-26 16:49 | 47.42192 | 9.39442 | 17159 ft | 393 kts | 85° |
| 2026-04-26 16:50 | 47.42352 | 9.43475 | 17691 ft | 394 kts | 85° |
| 2026-04-26 16:50 | 47.42512 | 9.47509 | 18229 ft | 393 kts | 85° |
| 2026-04-26 16:50 | 47.42670 | 9.51540 | 18733 ft | 393 kts | 85° |
| 2026-04-26 16:50 | 47.42827 | 9.55562 | 19197 ft | 392 kts | 85° |
| 2026-04-26 16:51 | 47.42982 | 9.59568 | 19689 ft | 390 kts | 85° |
| 2026-04-26 16:51 | 47.43136 | 9.63567 | 20182 ft | 389 kts | 85° |
| 2026-04-26 16:51 | 47.43288 | 9.67479 | 20683 ft | 387 kts | 85° |
| 2026-04-26 16:51 | 47.43441 | 9.71441 | 21181 ft | 384 kts | 85° |
| 2026-04-26 16:52 | 47.43591 | 9.75371 | 21702 ft | 382 kts | 84° |
| 2026-04-26 16:52 | 47.43688 | 9.77955 | 22051 ft | 380 kts | 84° |
| 2026-04-26 16:52 | 47.43882 | 9.83141 | 22768 ft | 376 kts | 84° |
| 2026-04-26 16:52 | 47.44023 | 9.86970 | 23311 ft | 372 kts | 84° |
| 2026-04-26 16:53 | 47.44108 | 9.90764 | 23851 ft | 368 kts | 92° |
| 2026-04-26 16:53 | 47.43666 | 9.94473 | 24336 ft | 366 kts | 103° |
| 2026-04-26 16:53 | 47.43000 | 9.98023 | 24807 ft | 361 kts | 103° |
| 2026-04-26 16:53 | 47.42445 | 10.01597 | 25290 ft | 353 kts | 96° |
| 2026-04-26 16:54 | 47.42233 | 10.05156 | 25783 ft | 344 kts | 88° |
| 2026-04-26 16:54 | 47.42185 | 10.08655 | 26288 ft | 338 kts | 88° |
| 2026-04-26 16:54 | 47.42063 | 10.12112 | 26796 ft | 337 kts | 91° |
| 2026-04-26 16:54 | 47.41821 | 10.15561 | 27194 ft | 338 kts | 92° |
| 2026-04-26 16:55 | 47.41657 | 10.17997 | 27482 ft | 338 kts | 91° |
| 2026-04-26 16:55 | 47.41479 | 10.21452 | 27887 ft | 337 kts | 90° |
| 2026-04-26 16:55 | 47.41314 | 10.24894 | 28296 ft | 335 kts | 90° |
| 2026-04-26 16:55 | 47.41122 | 10.28273 | 28712 ft | 334 kts | 91° |
| 2026-04-26 16:56 | 47.40731 | 10.35072 | 29567 ft | 330 kts | 90° |
| 2026-04-26 16:56 | 47.40550 | 10.38391 | 30000 ft | 326 kts | 90° |
| 2026-04-26 16:56 | 47.40357 | 10.41750 | 30424 ft | 321 kts | 90° |
| 2026-04-26 16:57 | 47.40170 | 10.45012 | 30798 ft | 317 kts | 90° |
| 2026-04-26 16:57 | 47.40138 | 10.48207 | 31180 ft | 305 kts | 73° |
| 2026-04-26 16:57 | 47.41532 | 10.54109 | 31207 ft | 315 kts | 64° |
| 2026-04-26 16:58 | 47.42790 | 10.59317 | 31208 ft | 327 kts | 66° |
| 2026-04-26 16:58 | 47.44659 | 10.66905 | 31204 ft | 349 kts | 66° |
| 2026-04-26 16:59 | 47.45497 | 10.70329 | 31200 ft | 359 kts | 66° |
| 2026-04-26 16:59 | 47.47231 | 10.77469 | 31197 ft | 379 kts | 66° |
| 2026-04-26 17:00 | 47.49043 | 10.84933 | 31185 ft | 398 kts | 67° |
| 2026-04-26 17:00 | 47.50954 | 10.92843 | 31175 ft | 418 kts | 67° |
| 2026-04-26 17:00 | 47.51939 | 10.96935 | 31175 ft | 427 kts | 67° |
| 2026-04-26 17:01 | 47.53972 | 11.05387 | 31183 ft | 445 kts | 68° |
| 2026-04-26 17:01 | 47.56081 | 11.14186 | 31171 ft | 463 kts | 68° |
| 2026-04-26 17:02 | 47.58255 | 11.23263 | 31159 ft | 479 kts | 68° |
| 2026-04-26 17:02 | 47.60473 | 11.32594 | 31162 ft | 478 kts | 68° |
| 2026-04-26 17:03 | 47.62626 | 11.41994 | 31165 ft | 486 kts | 72° |
| 2026-04-26 17:03 | 47.64607 | 11.51584 | 31163 ft | 486 kts | 70° |
| 2026-04-26 17:04 | 47.66572 | 11.61182 | 31162 ft | 486 kts | 72° |
| 2026-04-26 17:04 | 47.68502 | 11.70709 | 31168 ft | 485 kts | 71° |
| 2026-04-26 17:05 | 47.70421 | 11.80330 | 31170 ft | 487 kts | 74° |
| 2026-04-26 17:05 | 47.72260 | 11.90019 | 31171 ft | 488 kts | 71° |
| 2026-04-26 17:06 | 47.73840 | 11.99824 | 31169 ft | 490 kts | 78° |
| 2026-04-26 17:06 | 47.75248 | 12.09666 | 31176 ft | 490 kts | 76° |
| 2026-04-26 17:07 | 47.76631 | 12.19600 | 31178 ft | 492 kts | 78° |
| 2026-04-26 17:07 | 47.78004 | 12.29557 | 31180 ft | 492 kts | 77° |
| 2026-04-26 17:08 | 47.79388 | 12.39556 | 31180 ft | 495 kts | 77° |
| 2026-04-26 17:08 | 47.80751 | 12.49592 | 31181 ft | 496 kts | 77° |
| 2026-04-26 17:09 | 47.81895 | 12.57955 | 31184 ft | 497 kts | 78° |
| 2026-04-26 17:09 | 47.83443 | 12.69685 | 31188 ft | 498 kts | 78° |
| 2026-04-26 17:10 | 47.84582 | 12.79869 | 31193 ft | 499 kts | 80° |
| 2026-04-26 17:10 | 47.85738 | 12.90059 | 31191 ft | 500 kts | 80° |
| 2026-04-26 17:11 | 47.86750 | 13.00248 | 31192 ft | 501 kts | 81° |
| 2026-04-26 17:11 | 47.87842 | 13.10518 | 31192 ft | 503 kts | 80° |
| 2026-04-26 17:12 | 47.89401 | 13.25945 | 31190 ft | 505 kts | 81° |
| 2026-04-26 17:13 | 47.90462 | 13.36326 | 30895 ft | 508 kts | 81° |
| 2026-04-26 17:13 | 47.90976 | 13.41519 | 30650 ft | 504 kts | 81° |
| 2026-04-26 17:13 | 47.91823 | 13.51854 | 30149 ft | 501 kts | 89° |
| 2026-04-26 17:14 | 47.91817 | 13.57038 | 29856 ft | 499 kts | 91° |
| 2026-04-26 17:14 | 47.91710 | 13.67350 | 29299 ft | 496 kts | 90° |
| 2026-04-26 17:14 | 47.91713 | 13.72473 | 29020 ft | 494 kts | 90° |
| 2026-04-26 17:15 | 47.91652 | 13.82600 | 28477 ft | 490 kts | 91° |
| 2026-04-26 17:15 | 47.91607 | 13.87666 | 28206 ft | 488 kts | 90° |
| 2026-04-26 17:15 | 47.91581 | 13.92706 | 27936 ft | 486 kts | 90° |
| 2026-04-26 17:16 | 47.91555 | 13.97729 | 27669 ft | 484 kts | 90° |
| 2026-04-26 17:16 | 47.91512 | 14.02735 | 27406 ft | 482 kts | 90° |
| 2026-04-26 17:16 | 47.91464 | 14.07756 | 27151 ft | 489 kts | 90° |
| 2026-04-26 17:16 | 47.91422 | 14.12888 | 26895 ft | 501 kts | 90° |
| 2026-04-26 17:17 | 47.91380 | 14.18117 | 26638 ft | 508 kts | 90° |
| 2026-04-26 17:17 | 47.91329 | 14.23381 | 26384 ft | 508 kts | 91° |
| 2026-04-26 17:17 | 47.91274 | 14.28580 | 26136 ft | 507 kts | 91° |
| 2026-04-26 17:17 | 47.91219 | 14.33822 | 25886 ft | 505 kts | 90° |
| 2026-04-26 17:18 | 47.91167 | 14.39047 | 25641 ft | 504 kts | 90° |
| 2026-04-26 17:18 | 47.91107 | 14.44263 | 25379 ft | 501 kts | 91° |
| 2026-04-26 17:18 | 47.91041 | 14.49450 | 25026 ft | 500 kts | 91° |
| 2026-04-26 17:18 | 47.90979 | 14.54594 | 24668 ft | 494 kts | 90° |
| 2026-04-26 17:19 | 47.90852 | 14.64802 | 23968 ft | 489 kts | 91° |
| 2026-04-26 17:19 | 47.90780 | 14.69867 | 23599 ft | 487 kts | 91° |
| 2026-04-26 17:19 | 47.90709 | 14.74894 | 23190 ft | 484 kts | 91° |
| 2026-04-26 17:20 | 47.90639 | 14.79835 | 22791 ft | 482 kts | 91° |
| 2026-04-26 17:20 | 47.90590 | 14.83199 | 22516 ft | 480 kts | 91° |
| 2026-04-26 17:20 | 47.90489 | 14.89749 | 21990 ft | 476 kts | 91° |
| 2026-04-26 17:20 | 47.90410 | 14.94663 | 21593 ft | 473 kts | 91° |
| 2026-04-26 17:21 | 47.90331 | 14.99551 | 21215 ft | 471 kts | 90° |
| 2026-04-26 17:21 | 47.90252 | 15.04413 | 20839 ft | 468 kts | 90° |
| 2026-04-26 17:21 | 47.90168 | 15.09240 | 20466 ft | 466 kts | 91° |
| 2026-04-26 17:21 | 47.90113 | 15.14055 | 20096 ft | 463 kts | 88° |
| 2026-04-26 17:22 | 47.90260 | 15.18823 | 19734 ft | 459 kts | 84° |
| 2026-04-26 17:22 | 47.90485 | 15.23489 | 19384 ft | 457 kts | 85° |
| 2026-04-26 17:22 | 47.90593 | 15.28221 | 19026 ft | 455 kts | 88° |
| 2026-04-26 17:22 | 47.90623 | 15.32921 | 18679 ft | 452 kts | 88° |
| 2026-04-26 17:23 | 47.90712 | 15.37597 | 18304 ft | 450 kts | 86° |
| 2026-04-26 17:23 | 47.90857 | 15.42242 | 17905 ft | 447 kts | 86° |
| 2026-04-26 17:23 | 47.90967 | 15.46864 | 17511 ft | 445 kts | 87° |
| 2026-04-26 17:23 | 47.91036 | 15.51462 | 17120 ft | 443 kts | 87° |
| 2026-04-26 17:24 | 47.91115 | 15.56039 | 16733 ft | 440 kts | 86° |
| 2026-04-26 17:24 | 47.91216 | 15.60523 | 16345 ft | 438 kts | 86° |
| 2026-04-26 17:24 | 47.91313 | 15.65039 | 15978 ft | 435 kts | 86° |
| 2026-04-26 17:24 | 47.91298 | 15.69545 | 15610 ft | 434 kts | 91° |
| 2026-04-26 17:25 | 47.91096 | 15.74022 | 15239 ft | 431 kts | 94° |
| 2026-04-26 17:25 | 47.90821 | 15.78463 | 14876 ft | 430 kts | 94° |
| 2026-04-26 17:25 | 47.90522 | 15.82882 | 14523 ft | 427 kts | 95° |
| 2026-04-26 17:25 | 47.90212 | 15.87269 | 14166 ft | 425 kts | 95° |
| 2026-04-26 17:26 | 47.89900 | 15.91638 | 13788 ft | 422 kts | 95° |
| 2026-04-26 17:26 | 47.89588 | 15.95974 | 13394 ft | 419 kts | 95° |
| 2026-04-26 17:26 | 47.89276 | 16.00280 | 13004 ft | 419 kts | 95° |
| 2026-04-26 17:26 | 47.88964 | 16.04569 | 12619 ft | 413 kts | 95° |
| 2026-04-26 17:27 | 47.88392 | 16.08704 | 12240 ft | 413 kts | 107° |
| 2026-04-26 17:27 | 47.87390 | 16.12712 | 11863 ft | 412 kts | 112° |
| 2026-04-26 17:27 | 47.86250 | 16.16607 | 11495 ft | 410 kts | 114° |
| 2026-04-26 17:27 | 47.85066 | 16.20454 | 11115 ft | 407 kts | 115° |
| 2026-04-26 17:28 | 47.84043 | 16.24353 | 10748 ft | 404 kts | 101° |
| 2026-04-26 17:28 | 47.83916 | 16.28495 | 10409 ft | 400 kts | 83° |
| 2026-04-26 17:28 | 47.84302 | 16.32579 | 10052 ft | 397 kts | 78° |
| 2026-04-26 17:28 | 47.84840 | 16.36599 | 9664 ft | 395 kts | 76° |
| 2026-04-26 17:29 | 47.85422 | 16.40580 | 9267 ft | 393 kts | 75° |
| 2026-04-26 17:29 | 47.85815 | 16.43199 | 9004 ft | 391 kts | 75° |
| 2026-04-26 17:29 | 47.86605 | 16.48407 | 8503 ft | 388 kts | 75° |
| 2026-04-26 17:29 | 47.87198 | 16.52302 | 8006 ft | 380 kts | 75° |
| 2026-04-26 17:30 | 47.87771 | 16.56081 | 7519 ft | 368 kts | 75° |
| 2026-04-26 17:30 | 47.88320 | 16.59750 | 7027 ft | 358 kts | 75° |
| 2026-04-26 17:30 | 47.88852 | 16.63328 | 6540 ft | 349 kts | 75° |
| 2026-04-26 17:30 | 47.89368 | 16.66817 | 6031 ft | 342 kts | 75° |
| 2026-04-26 17:31 | 47.89871 | 16.70233 | 5523 ft | 335 kts | 75° |
| 2026-04-26 17:31 | 47.90359 | 16.73594 | 5025 ft | 328 kts | 75° |
| 2026-04-26 17:31 | 47.90803 | 16.76890 | 4514 ft | 323 kts | 82° |
| 2026-04-26 17:31 | 47.90519 | 16.80171 | 4027 ft | 322 kts | 111° |
| 2026-04-26 17:32 | 47.89206 | 16.82807 | 3543 ft | 319 kts | 141° |
| 2026-04-26 17:32 | 47.87219 | 16.84131 | 3067 ft | 314 kts | 173° |
| 2026-04-26 17:32 | 47.85174 | 16.83758 | 2986 ft | 290 kts | 206° |
| 2026-04-26 17:32 | 47.83709 | 16.81974 | 3006 ft | 262 kts | 241° |
| 2026-04-26 17:33 | 47.83257 | 16.79538 | 3003 ft | 236 kts | 278° |
| 2026-04-26 17:33 | 47.83841 | 16.77428 | 3002 ft | 214 kts | 309° |
| 2026-04-26 17:33 | 47.84791 | 16.75827 | 2994 ft | 200 kts | 315° |
| 2026-04-26 17:34 | 47.86684 | 16.72863 | 2998 ft | 195 kts | 315° |
| 2026-04-26 17:34 | 47.87629 | 16.71398 | 3001 ft | 196 kts | 315° |
| 2026-04-26 17:34 | 47.88587 | 16.69956 | 2996 ft | 196 kts | 322° |
| 2026-04-26 17:34 | 47.89785 | 16.69095 | 2994 ft | 195 kts | 342° |
| 2026-04-26 17:35 | 47.91065 | 16.68431 | 2992 ft | 194 kts | 337° |
| 2026-04-26 17:35 | 47.92283 | 16.67578 | 2989 ft | 194 kts | 333° |
| 2026-04-26 17:35 | 47.93488 | 16.66670 | 2987 ft | 194 kts | 333° |
| 2026-04-26 17:35 | 47.94703 | 16.65781 | 2991 ft | 194 kts | 333° |
| 2026-04-26 17:36 | 47.95915 | 16.64894 | 2990 ft | 195 kts | 333° |
| 2026-04-26 17:36 | 47.97148 | 16.64047 | 2987 ft | 195 kts | 340° |
| 2026-04-26 17:36 | 47.98462 | 16.63507 | 2991 ft | 197 kts | 344° |
| 2026-04-26 17:36 | 47.99780 | 16.62976 | 2987 ft | 196 kts | 343° |
| 2026-04-26 17:37 | 48.01041 | 16.62435 | 2982 ft | 188 kts | 343° |
| 2026-04-26 17:37 | 48.02300 | 16.61898 | 2980 ft | 188 kts | 343° |
| 2026-04-26 17:37 | 48.03565 | 16.61367 | 2760 ft | 193 kts | 343° |
| 2026-04-26 17:38 | 48.05888 | 16.60394 | 2091 ft | 154 kts | 343° |
| 2026-04-26 17:38 | 48.06899 | 16.59977 | 1541 ft | 150 kts | 344° |
| 2026-04-26 17:38 | 48.07899 | 16.59554 | 992 ft | 147 kts | 345° |
| 2026-04-26 17:38 | 48.08859 | 16.59130 | 664 ft | 140 kts | 346° |
| 2026-04-26 17:39 | 48.09734 | 16.58759 | 623 ft | 120 kts | 347° |
| 2026-04-26 17:39 | 48.10472 | 16.58459 | 597 ft | 97 kts | 344° |
| 2026-04-26 17:39 | 48.11004 | 16.58231 | 610 ft | 68 kts | 344° |
| 2026-04-26 17:39 | 48.11351 | 16.58084 | 604 ft | 39 kts | 345° |
| 2026-04-26 17:40 | 48.11584 | 16.57985 | 613 ft | 30 kts | 342° |
| 2026-04-26 17:40 | 48.11704 | 16.57936 | 620 ft | 24 kts | 343° |
| 2026-04-26 17:40 | 48.11849 | 16.57798 | 608 ft | 14 kts | 290° |
| 2026-04-26 17:40 | 48.11858 | 16.57688 | 609 ft | 8 kts | 268° |
| 2026-04-26 17:41 | 48.11851 | 16.57626 | 608 ft | 5 kts | 253° |
| 2026-04-26 17:41 | 48.11835 | 16.57541 | 612 ft | 10 kts | 259° |
| 2026-04-26 17:41 | 48.11850 | 16.57456 | 616 ft | 8 kts | 323° |
| 2026-04-26 17:41 | 48.11898 | 16.57433 | 613 ft | 8 kts | 344° |
| 2026-04-26 17:42 | 48.11972 | 16.57402 | 617 ft | 14 kts | 345° |
| 2026-04-26 17:42 | 48.12086 | 16.57355 | 604 ft | 19 kts | 344° |
| 2026-04-26 17:42 | 48.12185 | 16.57268 | 603 ft | 14 kts | 304° |
| 2026-04-26 17:42 | 48.12223 | 16.57157 | 601 ft | 11 kts | 296° |
| 2026-04-26 17:43 | 48.12255 | 16.57136 | 600 ft | 5 kts | 27° |
| 2026-04-26 17:43 | 48.12278 | 16.57155 | 601 ft | 0 kts | 27° |